Time;durP1;ratioP1;P1;durP2;ratioP2;P2;SDS_P1;SDS_P2;PMS_P1;PMS_P2;Temp;Humidity;BMP_temperature;BMP_pressure;BME280_temperature;BME280_humidity;BME280_pressure;Samples;Min_cycle;Max_cycle;Signal;HPM_P1;HPM_P2
2024/03/28 00:01:50;;;;;;;;;;;;;;;5.77;100.00;98244.25;5090943;28;19973;-74
2024/03/28 00:04:15;;;;;;;;;;;;;;;5.82;100.00;98244.38;5097557;28;19924;-73
2024/03/28 00:06:40;;;;;;;;;;;;;;;5.65;100.00;98238.88;5095417;28;19920;-73
2024/03/28 00:09:05;;;;;;;;;;;;;;;5.61;100.00;98235.88;5092413;28;19920;-72
2024/03/28 00:11:30;;;;;;;;;;;;;;;5.58;100.00;98230.16;5096583;28;20394;-73
2024/03/28 00:13:56;;;;;;;;;;;;;;;5.64;100.00;98223.09;5092830;28;20286;-73
2024/03/28 00:16:21;;;;;;;;;;;;;;;5.67;100.00;98230.63;5097594;28;20353;-73
2024/03/28 00:18:47;;;;;;;;;;;;;;;5.67;100.00;98231.47;5100666;28;20347;-73
2024/03/28 00:21:12;;;;;;;;;;;;;;;5.54;100.00;98231.69;5072432;28;20354;-73
2024/03/28 00:23:37;;;;;;;;;;;;;;;5.57;100.00;98229.34;5091595;28;19920;-73
2024/03/28 00:26:02;;;;;;;;;;;;;;;5.61;100.00;98214.50;5092751;28;20064;-73
2024/03/28 00:28:27;;;;;;;;;;;;;;;5.54;100.00;98215.66;5104135;28;19924;-73
2024/03/28 00:30:53;;;;;;;;;;;;;;;5.49;100.00;98208.31;5098424;28;20378;-73
2024/03/28 00:33:18;;;;;;;;;;;;;;;5.39;100.00;98211.56;5090809;28;19946;-73
2024/03/28 00:35:43;;;;;;;;;;;;;;;5.36;100.00;98217.38;5097332;28;19947;-73
2024/03/28 00:38:09;;;;;;;;;;;;;;;5.31;100.00;98226.03;5086003;28;19921;-73
2024/03/28 00:40:34;;;;;;;;;;;;;;;5.24;100.00;98230.66;5083990;28;19943;-74
2024/03/28 00:42:59;;;;;;;;;;;;;;;5.19;100.00;98235.84;5087097;28;19960;-74
2024/03/28 00:45:24;;;;;;;;;;;;;;;5.19;100.00;98227.84;5090141;28;20036;-73
2024/03/28 00:47:50;;;;;;;;;;;;;;;5.13;100.00;98208.25;5093569;28;20011;-74
2024/03/28 00:50:15;;;;;;;;;;;;;;;5.06;100.00;98204.84;5099416;28;20014;-74
2024/03/28 00:52:40;;;;;;;;;;;;;;;5.08;100.00;98202.78;5099347;28;19920;-74
2024/03/28 00:55:05;;;;;;;;;;;;;;;5.06;100.00;98193.38;5098373;28;19970;-73
2024/03/28 00:57:31;;;;;;;;;;;;;;;5.01;100.00;98178.88;5104111;28;19968;-73
2024/03/28 00:59:56;;;;;;;;;;;;;;;4.99;100.00;98175.63;5089963;28;20378;-74
2024/03/28 01:02:21;;;;;;;;;;;;;;;4.99;100.00;98172.94;5082406;28;20432;-74
2024/03/28 01:04:46;;;;;;;;;;;;;;;5.03;100.00;98173.28;5092210;28;20426;-73
2024/03/28 01:07:12;;;;;;;;;;;;;;;5.03;100.00;98165.28;5073791;28;20427;-74
2024/03/28 01:09:37;;;;;;;;;;;;;;;5.02;100.00;98161.03;5090049;28;20378;-73
2024/03/28 01:12:02;;;;;;;;;;;;;;;5.03;100.00;98177.81;5094474;28;19920;-74
2024/03/28 01:14:27;;;;;;;;;;;;;;;5.04;100.00;98180.25;5090263;28;20386;-74
2024/03/28 01:16:53;;;;;;;;;;;;;;;5.06;100.00;98188.84;5095201;28;19920;-73
2024/03/28 01:19:19;;;;;;;;;;;;;;;5.07;100.00;98184.34;5099631;28;19943;-73
2024/03/28 01:21:47;;;;;;;;;;;;;;;5.00;100.00;98163.91;5093400;28;19924;-74
2024/03/28 01:24:12;;;;;;;;;;;;;;;5.06;100.00;98140.06;5096963;28;19927;-73
2024/03/28 01:26:37;;;;;;;;;;;;;;;4.92;100.00;98128.75;5096522;28;19920;-73
2024/03/28 01:29:03;;;;;;;;;;;;;;;4.85;100.00;98124.31;5096061;28;20011;-74
2024/03/28 01:31:28;;;;;;;;;;;;;;;4.90;100.00;98131.66;5099386;28;19920;-73
2024/03/28 01:33:53;;;;;;;;;;;;;;;4.89;100.00;98148.69;5100583;28;19920;-74
2024/03/28 01:36:18;;;;;;;;;;;;;;;4.92;100.00;98153.59;5101179;28;20011;-73
2024/03/28 01:38:44;;;;;;;;;;;;;;;5.03;100.00;98153.84;5092921;28;20010;-73
2024/03/28 01:41:09;;;;;;;;;;;;;;;5.00;100.00;98152.44;5102883;28;20018;-73
2024/03/28 01:43:38;;;;;;;;;;;;;;;5.02;100.00;98147.69;5082023;28;20020;-74
2024/03/28 01:46:03;;;;;;;;;;;;;;;5.03;100.00;98143.16;5094237;28;20010;-73
2024/03/28 01:48:28;;;;;;;;;;;;;;;5.07;100.00;98147.81;5081874;28;20027;-73
2024/03/28 01:50:59;;;;;;;;;;;;;;;5.07;100.00;98139.00;5105806;28;20010;-73
2024/03/28 01:53:24;;;;;;;;;;;;;;;5.05;100.00;98133.09;5088868;28;19920;-73
2024/03/28 01:55:49;;;;;;;;;;;;;;;5.03;100.00;98135.16;5078352;28;20666;-74
2024/03/28 01:58:15;;;;;;;;;;;;;;;5.01;100.00;98128.22;5093782;28;20357;-74
2024/03/28 02:00:41;;;;;;;;;;;;;;;4.96;100.00;98128.06;5094910;28;20354;-74
2024/03/28 02:03:09;;;;;;;;;;;;;;;4.94;100.00;98124.81;5091407;28;19928;-73
2024/03/28 02:05:35;;;;;;;;;;;;;;;4.88;100.00;98109.75;5092737;28;20042;-74
2024/03/28 02:08:00;;;;;;;;;;;;;;;4.85;100.00;98112.88;5091786;28;20414;-73
2024/03/28 02:10:25;;;;;;;;;;;;;;;4.81;100.00;98109.03;5093131;28;19970;-73
2024/03/28 02:12:50;;;;;;;;;;;;;;;4.80;100.00;98107.41;5096008;28;19951;-73
2024/03/28 02:15:16;;;;;;;;;;;;;;;4.80;100.00;98115.38;5094779;28;19957;-74
2024/03/28 02:17:53;;;;;;;;;;;;;;;4.80;100.00;98108.22;5092165;28;19924;-74
2024/03/28 02:20:18;;;;;;;;;;;;;;;4.80;100.00;98110.06;5089188;28;19920;-75
2024/03/28 02:22:43;;;;;;;;;;;;;;;4.76;100.00;98111.56;5082541;28;19956;-74
2024/03/28 02:25:09;;;;;;;;;;;;;;;4.68;100.00;98110.84;5089487;28;19927;-74
2024/03/28 02:27:34;;;;;;;;;;;;;;;4.66;100.00;98112.91;5091798;28;19920;-74
2024/03/28 02:30:00;;;;;;;;;;;;;;;4.66;100.00;98112.13;5093988;28;19926;-74
2024/03/28 02:32:26;;;;;;;;;;;;;;;4.60;100.00;98111.16;5095267;28;20381;-74
2024/03/28 02:34:54;;;;;;;;;;;;;;;4.61;100.00;98112.78;5084169;28;19931;-74
2024/03/28 02:37:19;;;;;;;;;;;;;;;4.58;100.00;98107.09;5117709;28;19924;-74
2024/03/28 02:39:46;;;;;;;;;;;;;;;4.54;100.00;98112.06;5116732;28;19908;-75
2024/03/28 02:42:11;;;;;;;;;;;;;;;4.58;100.00;98113.25;5122724;27;19955;-74
2024/03/28 02:44:36;;;;;;;;;;;;;;;4.50;100.00;98125.00;5121976;28;19927;-74
2024/03/28 02:47:02;;;;;;;;;;;;;;;4.50;100.00;98122.34;5110322;28;19924;-73
2024/03/28 02:49:27;;;;;;;;;;;;;;;4.48;100.00;98118.28;5097483;28;19924;-74
2024/03/28 02:51:52;;;;;;;;;;;;;;;4.54;100.00;98112.88;5116386;28;19916;-73
2024/03/28 02:54:17;;;;;;;;;;;;;;;4.58;100.00;98101.78;5112148;28;20016;-73
2024/03/28 02:56:47;;;;;;;;;;;;;;;4.60;100.00;98116.47;5095536;28;19920;-74
2024/03/28 02:59:12;;;;;;;;;;;;;;;4.59;100.00;98106.84;5104567;28;19955;-74
2024/03/28 03:01:37;;;;;;;;;;;;;;;4.66;100.00;98104.13;5088803;28;19986;-73
2024/03/28 03:04:02;;;;;;;;;;;;;;;4.63;100.00;98105.38;5104411;28;19919;-74
2024/03/28 03:06:28;;;;;;;;;;;;;;;4.64;100.00;98107.00;5097987;27;19965;-74
2024/03/28 03:08:53;;;;;;;;;;;;;;;4.70;100.00;98111.44;5099585;28;19924;-74
2024/03/28 03:11:18;;;;;;;;;;;;;;;4.69;100.00;98106.31;5088291;28;20306;-74
2024/03/28 03:13:43;;;;;;;;;;;;;;;4.67;100.00;98105.75;5089057;28;20328;-74
2024/03/28 03:16:09;;;;;;;;;;;;;;;4.67;100.00;98095.91;5099215;28;19963;-74
2024/03/28 03:18:34;;;;;;;;;;;;;;;4.66;100.00;98093.47;5105959;28;19920;-74
2024/03/28 03:21:00;;;;;;;;;;;;;;;4.69;100.00;98093.81;5093915;28;19981;-74
2024/03/28 03:23:35;;;;;;;;;;;;;;;4.75;100.00;98080.63;5100788;28;19920;-73
2024/03/28 03:26:00;;;;;;;;;;;;;;;4.82;100.00;98082.16;5091692;28;19920;-73
2024/03/28 03:36:38;;;;;;;;;;;;;;;4.92;100.00;98070.94;5094467;28;20407;-74
2024/03/28 03:39:03;;;;;;;;;;;;;;;4.94;100.00;98068.84;5093545;28;19924;-74
2024/03/28 03:41:28;;;;;;;;;;;;;;;5.02;100.00;98070.38;5090843;28;20359;-74
2024/03/28 03:43:56;;;;;;;;;;;;;;;5.00;100.00;98075.94;5091935;28;20390;-74
2024/03/28 03:46:21;;;;;;;;;;;;;;;5.05;100.00;98064.56;5092005;28;20314;-74
2024/03/28 03:48:47;;;;;;;;;;;;;;;5.08;100.00;98065.97;5090933;28;20367;-74
2024/03/28 03:51:12;;;;;;;;;;;;;;;5.10;100.00;98072.69;5105520;28;20447;-74
2024/03/28 03:53:37;;;;;;;;;;;;;;;5.12;100.00;98067.94;5092489;28;20264;-74
2024/03/28 03:56:03;;;;;;;;;;;;;;;5.15;100.00;98062.16;5092092;28;20278;-72
2024/03/28 03:58:28;;;;;;;;;;;;;;;5.16;100.00;98069.13;5095651;28;20302;-73
2024/03/28 04:00:53;;;;;;;;;;;;;;;5.16;100.00;98065.63;5096180;28;19920;-73
2024/03/28 04:03:21;;;;;;;;;;;;;;;5.22;100.00;98070.03;5086461;28;19924;-73
2024/03/28 04:05:48;;;;;;;;;;;;;;;5.29;100.00;98067.25;5094915;28;19920;-73
2024/03/28 04:08:14;;;;;;;;;;;;;;;5.32;100.00;98058.81;5091537;28;19924;-73
2024/03/28 04:10:40;;;;;;;;;;;;;;;5.27;100.00;98056.84;5090516;28;19980;-73
2024/03/28 04:13:05;;;;;;;;;;;;;;;5.30;100.00;98044.88;5061752;28;20306;-73
2024/03/28 04:15:30;;;;;;;;;;;;;;;5.30;100.00;98031.53;5094113;28;19916;-73
2024/03/28 04:17:56;;;;;;;;;;;;;;;5.32;100.00;98027.59;5086512;28;19927;-73
2024/03/28 04:20:21;;;;;;;;;;;;;;;5.32;100.00;98019.59;5100231;28;19928;-73
2024/03/28 04:22:46;;;;;;;;;;;;;;;5.31;100.00;98009.16;5090055;28;19923;-72
2024/03/28 04:25:12;;;;;;;;;;;;;;;5.32;100.00;97997.44;5096104;28;19928;-73
2024/03/28 04:27:38;;;;;;;;;;;;;;;5.32;100.00;97989.44;5098080;28;19928;-74
2024/03/28 04:30:03;;;;;;;;;;;;;;;5.26;100.00;97991.19;5092508;28;20286;-73
2024/03/28 04:32:29;;;;;;;;;;;;;;;5.19;100.00;97971.81;5092888;28;19924;-73
2024/03/28 04:34:54;;;;;;;;;;;;;;;5.12;100.00;97971.94;5090822;28;20553;-73
2024/03/28 04:37:19;;;;;;;;;;;;;;;5.05;100.00;97957.91;5096045;28;20385;-73
2024/03/28 04:39:45;;;;;;;;;;;;;;;4.98;100.00;97943.91;5091216;28;20349;-74
2024/03/28 04:42:10;;;;;;;;;;;;;;;4.91;100.00;97943.19;5090676;28;19931;-74
2024/03/28 04:44:35;;;;;;;;;;;;;;;4.87;100.00;97950.84;5089879;28;19926;-74
2024/03/28 04:47:01;;;;;;;;;;;;;;;4.90;100.00;97954.91;5090996;28;19924;-75
2024/03/28 04:49:26;;;;;;;;;;;;;;;4.88;100.00;97956.97;5090374;28;19939;-74
2024/03/28 04:51:51;;;;;;;;;;;;;;;4.78;100.00;97946.91;5090750;28;19963;-74
2024/03/28 04:54:16;;;;;;;;;;;;;;;4.74;100.00;97945.75;5089984;28;20355;-74
2024/03/28 04:56:41;;;;;;;;;;;;;;;4.74;100.00;97943.09;5089060;28;20394;-75
2024/03/28 04:59:07;;;;;;;;;;;;;;;4.69;100.00;97949.91;5084750;28;19938;-74
2024/03/28 05:01:32;;;;;;;;;;;;;;;4.69;100.00;97952.59;5087869;28;19926;-74
2024/03/28 05:03:57;;;;;;;;;;;;;;;4.62;100.00;97935.88;5088628;28;19916;-74
2024/03/28 05:06:23;;;;;;;;;;;;;;;4.58;100.00;97931.25;5091116;28;20329;-74
2024/03/28 05:08:48;;;;;;;;;;;;;;;4.49;100.00;97930.78;5092014;28;20451;-74
2024/03/28 05:11:14;;;;;;;;;;;;;;;4.46;100.00;97936.56;5090845;28;19920;-74
2024/03/28 05:13:39;;;;;;;;;;;;;;;4.45;100.00;97932.28;5089940;28;19921;-74
2024/03/28 05:16:06;;;;;;;;;;;;;;;4.48;100.00;97931.81;5090812;28;19927;-73
2024/03/28 05:18:31;;;;;;;;;;;;;;;4.47;100.00;97940.84;5090464;28;19934;-74
2024/03/28 05:20:57;;;;;;;;;;;;;;;4.52;100.00;97925.00;5090903;28;19920;-74
2024/03/28 05:23:22;;;;;;;;;;;;;;;4.48;100.00;97927.31;5090994;28;19927;-74
2024/03/28 05:25:47;;;;;;;;;;;;;;;4.45;100.00;97933.09;5090610;28;19920;-75
2024/03/28 05:28:12;;;;;;;;;;;;;;;4.47;100.00;97935.53;5090172;28;19920;-74
2024/03/28 05:30:37;;;;;;;;;;;;;;;4.43;100.00;97927.19;5091348;28;19982;-74
2024/03/28 05:33:03;;;;;;;;;;;;;;;4.40;100.00;97925.81;5090930;28;20036;-73
2024/03/28 05:35:29;;;;;;;;;;;;;;;4.40;100.00;97920.47;5090360;28;19924;-73
2024/03/28 05:37:57;;;;;;;;;;;;;;;4.41;100.00;97921.28;5092102;28;19969;-74
2024/03/28 05:40:22;;;;;;;;;;;;;;;4.45;100.00;97913.63;5090875;28;20016;-74
2024/03/28 05:42:50;;;;;;;;;;;;;;;4.42;100.00;97912.25;5090574;28;19965;-74
2024/03/28 05:45:15;;;;;;;;;;;;;;;4.43;100.00;97907.72;5091288;28;19927;-74
2024/03/28 05:47:40;;;;;;;;;;;;;;;4.45;100.00;97902.97;5090332;28;19924;-72
2024/03/28 05:50:06;;;;;;;;;;;;;;;4.47;100.00;97903.56;5091252;28;19942;-73
2024/03/28 05:52:31;;;;;;;;;;;;;;;4.47;100.00;97908.88;5092231;28;20022;-75
2024/03/28 05:54:56;;;;;;;;;;;;;;;4.53;100.00;97902.66;5090417;28;19988;-73
2024/03/28 05:57:21;;;;;;;;;;;;;;;4.62;100.00;97890.59;5093927;28;20383;-74
2024/03/28 05:59:47;;;;;;;;;;;;;;;4.62;100.00;97887.91;5094723;28;19920;-74
2024/03/28 06:02:12;;;;;;;;;;;;;;;4.68;100.00;97888.84;5075739;28;19943;-74
2024/03/28 06:04:37;;;;;;;;;;;;;;;4.79;100.00;97887.22;5095156;28;19993;-73
2024/03/28 06:07:02;;;;;;;;;;;;;;;4.96;100.00;97882.81;5095639;28;19920;-73
2024/03/28 06:09:28;;;;;;;;;;;;;;;5.13;100.00;97884.75;5093894;28;19981;-75
2024/03/28 06:11:57;;;;;;;;;;;;;;;5.39;100.00;97871.94;5094464;28;19924;-72
2024/03/28 06:14:25;;;;;;;;;;;;;;;5.73;100.00;97877.38;5092107;28;19954;-73
2024/03/28 06:16:50;;;;;;;;;;;;;;;6.03;100.00;97871.00;5093825;28;19934;-74
2024/03/28 06:19:15;;;;;;;;;;;;;;;6.42;100.00;97875.63;5094401;28;20015;-74
2024/03/28 06:21:44;;;;;;;;;;;;;;;6.72;98.27;97888.63;5094810;28;19970;-74
2024/03/28 06:24:12;;;;;;;;;;;;;;;6.90;97.30;97886.75;5094029;28;19924;-74
2024/03/28 06:26:38;;;;;;;;;;;;;;;7.13;94.92;97889.22;5093857;28;19927;-74
2024/03/28 06:29:03;;;;;;;;;;;;;;;7.22;94.69;97886.13;5092914;28;19924;-74
2024/03/28 06:31:28;;;;;;;;;;;;;;;7.59;92.05;97888.13;5092772;28;19924;-74
2024/03/28 06:34:02;;;;;;;;;;;;;;;7.82;89.95;97872.84;5093937;28;19967;-74
2024/03/28 06:36:28;;;;;;;;;;;;;;;7.64;89.42;97874.81;5095089;28;19920;-74
2024/03/28 06:38:53;;;;;;;;;;;;;;;7.71;89.81;97866.56;5093469;28;19955;-75
2024/03/28 06:41:18;;;;;;;;;;;;;;;7.67;90.05;97877.00;5092259;28;20011;-74
2024/03/28 06:43:48;;;;;;;;;;;;;;;7.85;90.43;97867.00;5077015;28;20502;-75
2024/03/28 06:46:14;;;;;;;;;;;;;;;8.92;85.99;97863.53;5093837;28;19934;-78
2024/03/28 06:48:39;;;;;;;;;;;;;;;10.15;79.85;97872.22;5094714;28;19924;-78
2024/03/28 06:51:05;;;;;;;;;;;;;;;11.16;72.21;97874.31;5093943;28;19920;-76
2024/03/28 06:53:30;;;;;;;;;;;;;;;12.03;67.26;97911.91;5092527;28;20019;-72
2024/03/28 06:55:55;;;;;;;;;;;;;;;12.84;62.49;97930.44;5092920;28;20014;-75
2024/03/28 06:58:20;;;;;;;;;;;;;;;12.46;62.54;97939.13;5093591;28;20351;-75
2024/03/28 07:00:46;;;;;;;;;;;;;;;11.04;67.65;97928.44;5092587;28;19974;-75
2024/03/28 07:03:12;;;;;;;;;;;;;;;9.91;73.45;97914.91;5093170;28;19985;-75
2024/03/28 07:05:40;;;;;;;;;;;;;;;9.02;78.33;97915.63;5096399;28;19927;-75
2024/03/28 07:08:05;;;;;;;;;;;;;;;8.56;82.05;97919.63;5091493;28;19927;-75
2024/03/28 07:10:30;;;;;;;;;;;;;;;8.04;84.27;97913.78;5100651;28;19923;-75
2024/03/28 07:12:55;;;;;;;;;;;;;;;7.88;86.41;97914.69;5092261;28;20189;-75
2024/03/28 07:15:21;;;;;;;;;;;;;;;8.07;85.77;97911.66;5092583;28;19960;-74
2024/03/28 07:17:46;;;;;;;;;;;;;;;8.10;85.00;97905.81;5091671;28;20383;-74
2024/03/28 07:20:11;;;;;;;;;;;;;;;8.87;81.35;97909.09;5092135;28;19962;-73
2024/03/28 07:22:37;;;;;;;;;;;;;;;9.93;76.88;97913.59;5100984;28;19973;-74
2024/03/28 07:25:02;;;;;;;;;;;;;;;11.53;68.23;97916.19;5104384;28;19924;-74
2024/03/28 07:27:28;;;;;;;;;;;;;;;12.92;62.61;97910.13;5091368;28;20004;-74
2024/03/28 07:29:53;;;;;;;;;;;;;;;13.77;58.21;97911.34;5091924;28;20036;-73
2024/03/28 07:32:18;;;;;;;;;;;;;;;14.63;54.03;97928.50;5091384;28;19920;-76
2024/03/28 07:34:43;;;;;;;;;;;;;;;15.56;50.98;97931.47;5090926;28;19920;-73
2024/03/28 07:37:09;;;;;;;;;;;;;;;15.73;49.13;97936.25;5092316;28;19916;-73
2024/03/28 07:39:34;;;;;;;;;;;;;;;16.24;47.88;97939.03;5091627;28;20326;-73
2024/03/28 07:41:59;;;;;;;;;;;;;;;16.41;46.88;97933.72;5090828;28;19920;-73
2024/03/28 07:44:24;;;;;;;;;;;;;;;16.65;46.32;97940.75;5092298;28;19916;-73
2024/03/28 07:46:50;;;;;;;;;;;;;;;17.06;43.78;97942.47;5091586;28;19927;-73
2024/03/28 07:49:16;;;;;;;;;;;;;;;17.04;44.39;97955.56;5090171;28;19916;-73
2024/03/28 07:51:42;;;;;;;;;;;;;;;16.37;44.64;97938.16;5091822;28;19977;-74
2024/03/28 07:54:07;;;;;;;;;;;;;;;14.63;49.93;97938.50;5091207;28;19989;-74
2024/03/28 07:56:32;;;;;;;;;;;;;;;13.97;52.97;97935.72;5090516;28;19919;-74
2024/03/28 07:58:58;;;;;;;;;;;;;;;13.74;54.25;97924.63;5092048;28;19920;-74
2024/03/28 08:01:24;;;;;;;;;;;;;;;13.21;56.37;97925.50;5089935;28;19927;-74
2024/03/28 08:03:49;;;;;;;;;;;;;;;12.88;58.48;97932.28;5089296;28;19920;-74
2024/03/28 08:06:15;;;;;;;;;;;;;;;13.12;57.37;97928.81;5092176;28;19981;-74
2024/03/28 08:08:40;;;;;;;;;;;;;;;12.27;60.16;97934.41;5090776;28;19916;-74
2024/03/28 08:11:05;;;;;;;;;;;;;;;11.62;62.42;97924.50;5090876;28;20279;-73
2024/03/28 08:13:31;;;;;;;;;;;;;;;10.66;66.01;97924.47;5092045;28;19927;-74
2024/03/28 08:15:56;;;;;;;;;;;;;;;10.29;69.02;97915.53;5089528;28;19967;-73
2024/03/28 08:18:21;;;;;;;;;;;;;;;10.23;70.23;97916.63;5088779;28;19920;-75
2024/03/28 08:20:47;;;;;;;;;;;;;;;9.98;69.91;97915.50;5091498;28;19974;-73
2024/03/28 08:23:13;;;;;;;;;;;;;;;9.63;70.92;97917.78;5091447;28;20295;-73
2024/03/28 08:25:38;;;;;;;;;;;;;;;9.48;73.37;97912.38;5091271;28;19919;-75
2024/03/28 08:28:03;;;;;;;;;;;;;;;9.25;74.24;97917.91;5086582;28;19997;-74
2024/03/28 08:30:30;;;;;;;;;;;;;;;9.05;75.13;97915.94;5089560;28;19920;-74
2024/03/28 08:32:56;;;;;;;;;;;;;;;8.85;77.25;97918.50;5090784;28;20169;-74
2024/03/28 08:35:22;;;;;;;;;;;;;;;8.71;78.67;97918.13;5090892;28;20467;-74
2024/03/28 08:37:52;;;;;;;;;;;;;;;8.53;80.43;97922.03;5090291;28;20016;-74
2024/03/28 08:40:17;;;;;;;;;;;;;;;8.47;81.03;97921.94;5090952;28;20467;-74
2024/03/28 08:42:43;;;;;;;;;;;;;;;8.46;82.18;97919.53;5091760;28;20000;-74
2024/03/28 08:45:13;;;;;;;;;;;;;;;8.29;81.01;97919.63;5090631;28;20422;-73
2024/03/28 08:47:45;;;;;;;;;;;;;;;8.25;82.20;97930.06;5090017;28;19961;-74
2024/03/28 08:50:13;;;;;;;;;;;;;;;8.15;82.65;97930.78;5090801;28;19916;-74
2024/03/28 08:52:39;;;;;;;;;;;;;;;8.16;84.31;97929.72;5089932;28;20389;-73
2024/03/28 08:55:04;;;;;;;;;;;;;;;8.18;85.29;97922.25;5072433;28;19937;-73
2024/03/28 08:57:30;;;;;;;;;;;;;;;8.23;86.28;97931.38;5090631;28;19916;-76
2024/03/28 08:59:56;;;;;;;;;;;;;;;8.07;85.73;97928.53;5089782;28;20367;-74
2024/03/28 09:02:21;;;;;;;;;;;;;;;7.90;88.83;97928.66;5090577;28;19916;-74
2024/03/28 09:04:47;;;;;;;;;;;;;;;7.78;87.59;97936.00;5089554;28;19916;-74
2024/03/28 09:07:14;;;;;;;;;;;;;;;7.73;90.91;97929.53;5090560;28;19928;-74
2024/03/28 09:09:40;;;;;;;;;;;;;;;7.72;90.91;97921.75;5091012;28;20014;-75
2024/03/28 09:12:05;;;;;;;;;;;;;;;7.72;91.89;97935.97;5090179;28;20062;-74
2024/03/28 09:14:30;;;;;;;;;;;;;;;7.70;93.60;97935.41;5090449;28;19927;-75
2024/03/28 09:16:56;;;;;;;;;;;;;;;7.66;95.58;97939.63;5090320;28;19916;-74
2024/03/28 09:19:21;;;;;;;;;;;;;;;7.72;98.66;97944.00;5089341;28;20045;-74
2024/03/28 09:21:46;;;;;;;;;;;;;;;7.68;98.15;97942.88;5090762;28;19920;-74
2024/03/28 09:24:13;;;;;;;;;;;;;;;7.66;98.43;97942.31;5090050;28;19924;-74
2024/03/28 09:26:38;;;;;;;;;;;;;;;7.52;98.58;97943.75;5089802;28;19923;-74
2024/03/28 09:29:04;;;;;;;;;;;;;;;7.38;100.00;97946.78;5091007;28;20374;-75
2024/03/28 09:31:29;;;;;;;;;;;;;;;7.10;99.27;97953.91;5090710;28;19979;-75
2024/03/28 09:33:54;;;;;;;;;;;;;;;7.01;100.00;97960.72;5092490;28;19959;-74
2024/03/28 09:36:19;;;;;;;;;;;;;;;6.93;100.00;97958.47;5094123;28;19963;-74
2024/03/28 09:38:45;;;;;;;;;;;;;;;6.82;100.00;97958.31;5093404;28;19971;-74
2024/03/28 09:41:15;;;;;;;;;;;;;;;6.87;100.00;97964.81;5093778;28;19917;-74
2024/03/28 09:43:41;;;;;;;;;;;;;;;6.79;100.00;97961.47;5094561;28;20421;-74
2024/03/28 09:46:06;;;;;;;;;;;;;;;6.86;100.00;97977.34;5093608;28;19928;-75
2024/03/28 09:48:31;;;;;;;;;;;;;;;6.73;100.00;97965.09;5074657;28;19924;-74
2024/03/28 09:50:57;;;;;;;;;;;;;;;6.64;100.00;97975.41;5094392;28;20014;-75
2024/03/28 09:53:22;;;;;;;;;;;;;;;6.60;100.00;97981.47;5092739;28;20035;-74
2024/03/28 09:55:47;;;;;;;;;;;;;;;6.55;100.00;97984.06;5074461;28;20007;-74
2024/03/28 09:58:13;;;;;;;;;;;;;;;6.51;100.00;97984.56;5094197;28;20382;-75
2024/03/28 10:00:38;;;;;;;;;;;;;;;6.40;100.00;97988.09;5093710;28;20268;-74
2024/03/28 10:03:05;;;;;;;;;;;;;;;6.40;100.00;97988.09;5074562;28;19927;-74
2024/03/28 10:05:33;;;;;;;;;;;;;;;6.33;100.00;97990.13;5075800;28;20011;-75
2024/03/28 10:07:58;;;;;;;;;;;;;;;6.26;100.00;97997.47;5092328;28;19920;-74
2024/03/28 10:10:26;;;;;;;;;;;;;;;6.28;100.00;97995.38;5094094;28;19922;-74
2024/03/28 10:12:52;;;;;;;;;;;;;;;6.33;100.00;97998.13;5077118;28;19916;-73
2024/03/28 10:15:18;;;;;;;;;;;;;;;6.33;100.00;97998.13;5094220;28;19931;-74
2024/03/28 10:17:43;;;;;;;;;;;;;;;6.38;100.00;97992.84;5094334;28;19928;-75
2024/03/28 10:20:10;;;;;;;;;;;;;;;6.42;100.00;98001.22;5096393;28;19975;-75
2024/03/28 10:22:45;;;;;;;;;;;;;;;6.45;100.00;97998.88;5075649;28;20430;-75
2024/03/28 10:25:19;;;;;;;;;;;;;;;6.46;100.00;98005.84;5093657;28;19924;-74
2024/03/28 10:27:45;;;;;;;;;;;;;;;6.49;100.00;98016.06;5094259;28;20023;-77
2024/03/28 10:30:28;;;;;;;;;;;;;;;6.58;100.00;98021.81;5093764;28;20018;-77
2024/03/28 10:33:03;;;;;;;;;;;;;;;6.59;100.00;98026.13;5091366;28;19923;-74
2024/03/28 10:35:30;;;;;;;;;;;;;;;6.56;100.00;98025.78;5093841;28;19920;-76
2024/03/28 10:38:01;;;;;;;;;;;;;;;6.52;100.00;98028.94;5091364;28;19916;-73
2024/03/28 10:40:27;;;;;;;;;;;;;;;6.58;100.00;98027.16;5092822;28;19928;-74
2024/03/28 10:42:56;;;;;;;;;;;;;;;6.67;100.00;98035.59;5070028;28;19928;-75
2024/03/28 10:45:23;;;;;;;;;;;;;;;6.68;100.00;98032.69;5092986;28;20397;-74
2024/03/28 10:47:48;;;;;;;;;;;;;;;6.67;100.00;98038.28;5074421;28;19968;-74
2024/03/28 10:50:17;;;;;;;;;;;;;;;6.74;100.00;98046.13;5094125;28;20351;-74
2024/03/28 10:52:46;;;;;;;;;;;;;;;6.71;100.00;98049.28;5089535;28;19924;-74
2024/03/28 10:55:11;;;;;;;;;;;;;;;6.71;100.00;98051.97;5072026;28;20294;-72
2024/03/28 10:57:40;;;;;;;;;;;;;;;6.67;100.00;98046.28;5091268;28;20389;-73
2024/03/28 11:00:07;;;;;;;;;;;;;;;6.60;100.00;98061.66;5089517;28;20291;-74
2024/03/28 11:02:32;;;;;;;;;;;;;;;6.53;100.00;98061.81;5091947;28;20320;-73
2024/03/28 11:04:58;;;;;;;;;;;;;;;6.43;100.00;98077.66;5092067;28;20002;-73
2024/03/28 11:07:24;;;;;;;;;;;;;;;6.38;100.00;98081.03;5088510;28;19999;-73
2024/03/28 11:09:50;;;;;;;;;;;;;;;6.11;100.00;98092.28;5075572;28;19947;-74
2024/03/28 11:12:15;;;;;;;;;;;;;;;5.97;100.00;98090.91;5091593;28;19923;-74
2024/03/28 11:14:40;;;;;;;;;;;;;;;5.90;100.00;98093.69;5073458;28;19920;-74
2024/03/28 11:17:06;;;;;;;;;;;;;;;5.86;100.00;98111.22;5091404;28;20042;-74
2024/03/28 11:19:31;;;;;;;;;;;;;;;5.85;100.00;98112.25;5090237;28;19924;-73
2024/03/28 11:21:57;;;;;;;;;;;;;;;5.78;100.00;98112.38;5071905;28;19920;-74
2024/03/28 11:24:22;;;;;;;;;;;;;;;5.98;100.00;98111.22;5090433;28;19924;-74
2024/03/28 11:26:54;;;;;;;;;;;;;;;5.77;100.00;98118.78;5073560;28;19931;-74
2024/03/28 11:29:22;;;;;;;;;;;;;;;5.89;100.00;98116.09;5090918;28;19962;-73
2024/03/28 11:31:57;;;;;;;;;;;;;;;5.95;100.00;98119.69;5090466;28;19928;-73
2024/03/28 11:34:26;;;;;;;;;;;;;;;6.15;100.00;98114.81;5096187;28;19935;-74
2024/03/28 11:36:54;;;;;;;;;;;;;;;6.05;100.00;98103.91;5092284;28;19916;-72
2024/03/28 11:39:20;;;;;;;;;;;;;;;6.08;100.00;98103.44;5089529;28;19934;-74
2024/03/28 11:41:45;;;;;;;;;;;;;;;5.97;100.00;98129.06;5090557;28;19994;-73
2024/03/28 11:44:10;;;;;;;;;;;;;;;6.24;100.00;98143.81;5089727;28;19928;-73
2024/03/28 11:46:36;;;;;;;;;;;;;;;6.51;100.00;98157.44;5089706;28;20249;-73
2024/03/28 11:49:01;;;;;;;;;;;;;;;6.70;100.00;98162.63;5090025;28;20333;-73
2024/03/28 11:51:27;;;;;;;;;;;;;;;6.81;100.00;98172.44;5092476;28;19924;-73
2024/03/28 11:53:53;;;;;;;;;;;;;;;6.37;100.00;98176.44;5089466;28;20382;-74
2024/03/28 11:56:21;;;;;;;;;;;;;;;6.64;100.00;98178.56;5091505;28;20279;-73
2024/03/28 11:58:46;;;;;;;;;;;;;;;6.75;100.00;98187.59;5090417;28;19924;-73
2024/03/28 12:01:11;;;;;;;;;;;;;;;7.15;100.00;98190.47;5088989;28;19935;-73
2024/03/28 12:03:36;;;;;;;;;;;;;;;7.12;100.00;98195.22;5090441;28;20355;-73
2024/03/28 12:06:02;;;;;;;;;;;;;;;7.03;100.00;98203.88;5090069;28;20294;-73
2024/03/28 12:08:28;;;;;;;;;;;;;;;6.96;100.00;98206.72;5088806;28;19973;-73
2024/03/28 12:10:59;;;;;;;;;;;;;;;6.81;100.00;98213.38;5090656;28;19924;-73
2024/03/28 12:13:24;;;;;;;;;;;;;;;7.18;100.00;98216.75;5089507;28;19963;-73
2024/03/28 12:16:16;;;;;;;;;;;;;;;7.19;100.00;98235.22;5089072;28;19962;-72
2024/03/28 12:18:41;;;;;;;;;;;;;;;7.38;100.00;98230.50;5090651;28;19960;-74
2024/03/28 12:21:07;;;;;;;;;;;;;;;7.78;100.00;98241.28;5089562;28;20346;-73
2024/03/28 12:23:33;;;;;;;;;;;;;;;8.39;100.00;98245.97;5088830;28;19920;-73
2024/03/28 12:25:58;;;;;;;;;;;;;;;8.14;100.00;98250.72;5090726;28;20380;-73
2024/03/28 12:28:23;;;;;;;;;;;;;;;8.54;100.00;98250.75;5089659;28;20387;-73
2024/03/28 12:30:49;;;;;;;;;;;;;;;9.46;98.87;98237.56;5088369;28;20414;-73
2024/03/28 12:33:16;;;;;;;;;;;;;;;9.34;96.60;98255.72;5089381;28;20370;-73
2024/03/28 12:35:42;;;;;;;;;;;;;;;9.40;97.04;98260.06;5088909;28;19966;-74
2024/03/28 12:38:07;;;;;;;;;;;;;;;9.33;95.52;98254.09;5089155;28;19923;-73
2024/03/28 12:40:34;;;;;;;;;;;;;;;9.58;94.54;98255.38;5072007;28;19920;-73
2024/03/28 12:42:59;;;;;;;;;;;;;;;10.02;88.27;98256.03;5089060;28;19920;-73
2024/03/28 12:45:28;;;;;;;;;;;;;;;9.62;88.54;98259.19;5089394;28;20224;-73
2024/03/28 12:47:54;;;;;;;;;;;;;;;9.76;87.86;98268.44;5090597;28;19927;-72
2024/03/28 12:50:23;;;;;;;;;;;;;;;10.14;81.66;98258.53;5071837;28;20011;-73